22 de maio de 2022

Tempo Código Clima Temp. Visão Nuvens Vento METAR/SPECI
08:20
V
12 °C 10 km+ - Var   Var 2 kt METAR EDLP 220620Z VRB02KT CAVOK 12/07 Q1018
07:50
V
10 °C 10 km+ - Var   Var 1 kt METAR EDLP 220550Z VRB01KT CAVOK 10/08 Q1018
07:20
V
9 °C 10 km+ - Var   Var 2 kt METAR EDLP 220520Z VRB02KT CAVOK 09/07 Q1018
06:50
V
8 °C 10 km+ - Var   Var 1 kt METAR EDLP 220450Z VRB01KT CAVOK 08/07 Q1018
06:20
V
7 °C 10 km+ - Var   Var 2 kt METAR EDLP 220420Z VRB02KT 9999 FEW037 07/06 Q1018
05:50
V
7 °C 10 km+ - Var   Var 2 kt METAR EDLP 220350Z VRB02KT 9999 FEW044 07/06 Q1018
05:20
V
8 °C 10 km+ - Var   Var 2 kt METAR EDLP 220320Z VRB02KT 9999 FEW039 08/07 Q1018
04:50
V
8 °C 10 km+ - Var   Var 1 kt METAR EDLP 220250Z VRB01KT CAVOK 08/06 Q1019
04:20
V
8 °C 10 km+ - Var   Var 2 kt METAR EDLP 220220Z VRB02KT CAVOK 08/06 Q1018
03:50
V
9 °C 10 km+ - Var   Var 2 kt METAR EDLP 220150Z VRB02KT 9999 FEW048 09/07 Q1019
03:20
V
8 °C 10 km+ - Var   Var 2 kt METAR EDLP 220120Z VRB02KT 9999 FEW047 08/07 Q1019
02:50
V
10 °C 10 km+ 4.200 ft 190°   190° 3 kt METAR EDLP 220050Z 19003KT 9999 BKN042 10/08 Q1019
02:20
V
9 °C 10 km+ 4.200 ft 210°   210° 3 kt METAR EDLP 220020Z 21003KT 9999 BKN042 09/07 Q1019
01:50
V
10 °C 10 km+ - Var   Var 2 kt METAR EDLP 212350Z VRB02KT 9999 SCT045 10/07 Q1019
01:20
V
10 °C 10 km+ 4.400 ft 310°   310° 2 kt METAR EDLP 212320Z 31002KT 9999 BKN044 10/07 Q1019
00:50
V
11 °C 10 km+ - 250°   250° 4 kt METAR EDLP 212250Z 25004KT 9999 SCT042 11/08 Q1020
00:20
V
11 °C 10 km+ - 240°   240° 5 kt METAR EDLP 212220Z 24005KT 9999 FEW045 11/08 Q1020

21 de maio de 2022

Tempo Código Clima Temp. Visão Nuvens Vento METAR/SPECI
23:50
V
11 °C 10 km+ - 230°   230° 5 kt METAR EDLP 212150Z 23005KT CAVOK 11/08 Q1020
23:20
V
11 °C 10 km+ - 240°   240° 4 kt METAR EDLP 212120Z 24004KT CAVOK 11/08 Q1020
22:50
V
12 °C 10 km+ - 230°   230° 4 kt METAR EDLP 212050Z 23004KT 9999 FEW041 12/08 Q1020
22:20
V
12 °C 10 km+ - 230°   230° 4 kt METAR EDLP 212020Z 23004KT CAVOK 12/08 Q1020
21:50
V
12 °C 10 km+ - 240°   240° 4 kt METAR EDLP 211950Z 24004KT 9999 SCT042 12/08 Q1020
21:20
V
14 °C 10 km+ - 240°   240° 3 kt METAR EDLP 211920Z 24003KT 9999 SCT043 14/08 Q1020
20:50
V
15 °C 10 km+ - 260°   260° 4 kt METAR EDLP 211850Z 26004KT 230V290 CAVOK 15/07 Q1020
20:20
V
15 °C 10 km+ - 250°   250° 6 kt METAR EDLP 211820Z 25006KT 220V330 CAVOK 15/07 Q1020
19:50
V
15 °C 10 km+ - 260°   260° 6 kt METAR EDLP 211750Z 26006KT 210V330 CAVOK 15/07 Q1020
19:20
V
16 °C 10 km+ - 270°   270° 7 kt METAR EDLP 211720Z 27007KT 220V320 CAVOK 16/07 Q1020
18:50
V
16 °C 10 km+ - 250°   250° 8 kt METAR EDLP 211650Z 25008KT 200V300 9999 FEW037 16/07 Q1020
18:20
V
16 °C 10 km+ - 260°   260° 8 kt METAR EDLP 211620Z 26008KT 220V310 9999 FEW039 16/08 Q1020
17:50
V
16 °C 10 km+ - 270°   270° 6 kt METAR EDLP 211550Z 27006KT 220V310 9999 FEW034 16/07 Q1020
17:20
V
15 °C 10 km+ - 260°   260° 9 kt METAR EDLP 211520Z 26009KT 210V320 9999 FEW035 15/07 Q1020
16:50
V
16 °C 10 km+ - 270°   270° 10 kt METAR EDLP 211450Z 27010KT 220V330 9999 FEW035 16/08 Q1021
16:20
V
16 °C 10 km+ - 260°   260° 10 kt METAR EDLP 211420Z 26010KT 220V310 9999 FEW046 16/07 Q1021
15:50
V
15 °C 10 km+ - 250°   250° 12 kt METAR EDLP 211350Z 25012KT 210V310 9999 FEW034 15/07 Q1021
15:20
V
16 °C 10 km+ - 250°   250° 10 kt METAR EDLP 211320Z 25010KT 220V300 9999 FEW032 16/08 Q1021
14:50
V
15 °C 10 km+ - 260°   260° 10 kt METAR EDLP 211250Z 26010KT 200V300 9999 SCT032 15/08 Q1021
14:20
V
16 °C 10 km+ - 260°   260° 11 21 kt METAR EDLP 211220Z 26011G21KT 220V320 9999 SCT032 SCT036 16/09 Q1021
13:50
V
14 °C 10 km+ - 260°   260° 12 kt METAR EDLP 211150Z 26012KT 230V310 9999 SCT027 14/07 Q1021
13:20
V
15 °C 10 km+ - 260°   260° 12 kt METAR EDLP 211120Z 26012KT 220V320 9999 SCT027 15/09 Q1021
12:50
V
15 °C 10 km+ - 250°   250° 13 kt METAR EDLP 211050Z 25013KT 220V280 9999 FEW021 15/09 Q1021
12:20
V
13 °C 10 km+ - 240°   240° 13 kt METAR EDLP 211020Z 24013KT 220V280 9999 FEW047 13/09 Q1021
11:50
V
13 °C 10 km+ - 240°   240° 11 kt METAR EDLP 210950Z 24011KT 9999 FEW021 SCT046 13/08 Q1021
11:20
V
13 °C 10 km+ 4.600 ft 250°   250° 15 kt METAR EDLP 210920Z 25015KT 9999 FEW021 BKN046 13/08 Q1020
10:50
V
13 °C 10 km+ 4.000 ft 240°   240° 13 kt METAR EDLP 210850Z 24013KT 210V280 9999 FEW020 BKN040 13/08 Q1020
10:20
V
12 °C 10 km+ 3.700 ft 240°   240° 10 kt METAR EDLP 210820Z 24010KT 220V290 9999 SCT017 OVC037 12/08 Q1020
09:50
V
12 °C 10 km+ 3.100 ft 240°   240° 13 kt METAR EDLP 210750Z 24013KT 9999 FEW018 BKN031 OVC038 12/08 Q1020
09:20
M
11 °C 10 km+ 2.300 ft 240°   240° 12 kt METAR EDLP 210720Z 24012KT 9999 FEW012 BKN023 OVC027 11/09 Q1020
08:50
M
11 °C 10 km+ 1.100 ft 240°   240° 13 kt METAR EDLP 210650Z 24013KT 9999 -DZ BKN011 OVC025 11/08 Q1020
08:20
M
11 °C 10 km+ 1.200 ft 240°   240° 10 kt METAR EDLP 210620Z 24010KT 210V270 9999 OVC012 11/08 Q1020
07:50
M
11 °C 10 km+ 1.400 ft 250°   250° 11 kt METAR EDLP 210550Z 25011KT 220V290 9999 OVC014 11/08 Q1019
07:20
M
11 °C 10 km+ 1.500 ft 240°   240° 11 kt METAR EDLP 210520Z 24011KT 220V300 9999 OVC015 11/08 Q1019
06:50
M
10 °C 10 km+ 1.800 ft 230°   230° 9 kt METAR EDLP 210450Z 23009KT 9999 BKN018 10/07 Q1019
06:20
V
10 °C 10 km+ - 230°   230° 8 kt METAR EDLP 210420Z 23008KT 9999 FEW019 10/07 Q1019
05:50
V
9 °C 10 km+ - 240°   240° 7 kt METAR EDLP 210350Z 24007KT 9999 FEW021 09/07 Q1019
05:20
V
9 °C 10 km+ - 220°   220° 7 kt METAR EDLP 210320Z 22007KT 9999 FEW020 09/07 Q1019
04:50
V
10 °C 10 km+ - 250°   250° 7 kt METAR EDLP 210250Z 25007KT 220V290 9999 FEW018 SCT028 10/07 Q1019
04:20
V
11 °C 10 km+ 3.100 ft 260°   260° 7 kt METAR EDLP 210220Z 26007KT 220V310 9999 SCT019 BKN031 11/07 Q1019
03:50
V
11 °C 10 km+ 3.300 ft 270°   270° 7 kt METAR EDLP 210150Z 27007KT 210V320 9999 FEW029 BKN033 11/07 Q1019
03:20
V
11 °C 10 km+ 3.500 ft 260°   260° 9 kt METAR EDLP 210120Z 26009KT 210V300 9999 FEW019 BKN035 11/07 Q1019
02:50
V
11 °C 10 km+ 3.300 ft 260°   260° 8 kt METAR EDLP 210050Z 26008KT 220V310 9999 FEW019 BKN033 11/07 Q1019
02:20
V
11 °C 10 km+ 3.500 ft 270°   270° 8 kt METAR EDLP 210020Z 27008KT 220V310 9999 FEW022 SCT028 OVC035 11/08 Q1019
01:50
M
12 °C 10 km+ 2.800 ft 280°   280° 10 kt METAR EDLP 202350Z 28010KT 220V310 9999 FEW019 BKN028 BKN034 12/08 Q1019
01:20
M
12 °C 10 km+ 2.500 ft 280°   280° 12 kt METAR EDLP 202320Z 28012KT 220V310 9999 FEW016 SCT019 OVC025 12/07 Q1018
00:50
M
12 °C 10 km+ 2.900 ft 270°   270° 13 26 kt METAR EDLP 202250Z 27013G26KT 230V310 9999 SCT014 BKN029 OVC035 12/09 Q1018
00:20
M
13 °C 10 km+ 2.100 ft 260°   260° 10 22 kt METAR EDLP 202220Z 26010G22KT 230V310 9999 SCT013 BKN021 OVC024 13/10 Q1017

20 de maio de 2022

Tempo Código Clima Temp. Visão Nuvens Vento METAR/SPECI
23:50
M
13 °C 10 km+ 2.000 ft 260°   260° 9 kt METAR EDLP 202150Z 26009KT 220V330 9999 SCT013 OVC020 13/10 Q1017
23:20
M
13 °C 10 km+ 2.100 ft Var   Var 11 kt METAR EDLP 202120Z VRB11KT 9999 SCT014 BKN021 OVC024 13/10 Q1016
22:50
M
13 °C 10 km+ 2.600 ft 280°   280° 9 kt METAR EDLP 202050Z 28009KT 240V320 9999 -SHRA SCT016 SCT022 OVC026 13/10 Q1016
22:20
M
15 °C 10 km+ 2.200 ft 270°   270° 11 24 kt METAR EDLP 202020Z 27011G24KT 210V320 9999 -SHRA FEW019 BKN022 BKN042 15/11 Q1015
21:50
V
15 °C 10 km+ 3.700 ft 270°   270° 15 26 kt METAR EDLP 201950Z 27015G26KT 230V310 9999 -SHRA SCT019 SCT030 OVC037 15/12 Q1015
21:20
M
17 °C 10 km+ 2.100 ft 250°   250° 14 24 kt METAR EDLP 201920Z 25014G24KT 220V290 9999 -SHRA BKN021 17/13 Q1013
20:50
V
17 °C 10 km+ - 250°   250° 14 kt METAR EDLP 201850Z 25014KT 210V280 9999 -SHRA FEW019 SCT026 17/14 Q1013
20:20
V
17 °C 10 km+ - 230°   230° 11 kt METAR EDLP 201820Z 23011KT 9999 -SHRA SCT028 17/15 Q1013
19:50
V
18 °C 10 km+ 3.000 ft 240°   240° 8 kt METAR EDLP 201750Z 24008KT 220V280 9999 -SHRA BKN030 18/15 Q1013
19:20
V
18 °C 10 km+ - 230°   230° 6 kt METAR EDLP 201720Z 23006KT 200V260 9999 FEW037 18/16 Q1013
18:50
V
19 °C 10 km+ 4.800 ft 240°   240° 8 kt METAR EDLP 201650Z 24008KT 9999 -SHRA BKN048 19/16 Q1013
18:20
V
18 °C 10 km+ - 210°   210° 5 kt METAR EDLP 201620Z 21005KT 9999 -SHRA NSC 18/16 Q1013
17:50
V
18 °C 10 km+ 3.000 ft 240°   240° 4 kt METAR EDLP 201550Z 24004KT 190V300 9999 -SHRA FEW012 BKN030TCU 18/16 Q1013
17:20
V
19 °C 9 km 4.500 ft 220°   220° 7 kt METAR EDLP 201520Z 22007KT 180V310 9000 -SHRA FEW037CB BKN045 19/17 Q1014 RETS
16:50
M
21 °C 10 km+ 2.000 ft 140°   140° 6 kt METAR EDLP 201450Z 14006KT 9999 -TSRA BKN020CB 21/16 Q1013
16:20
V
21 °C 10 km+ - 120°   120° 7 kt METAR EDLP 201420Z 12007KT 100V160 9999 -SHRA NSC 21/16 Q1014
15:50
V
22 °C 10 km+ - 130°   130° 10 kt METAR EDLP 201350Z 13010KT CAVOK 22/16 Q1014
15:20
V
23 °C 10 km+ - 110°   110° 9 kt METAR EDLP 201320Z 11009KT 080V150 9999 FEW028 23/17 Q1015
14:50
V
23 °C 10 km+ - 100°   100° 8 kt METAR EDLP 201250Z 10008KT 070V150 9999 FEW023 23/17 Q1015
14:20
V
21 °C 10 km+ - 080°   080° 8 kt METAR EDLP 201220Z 08008KT 050V120 9999 SCT021 SCT030 21/16 Q1016
13:50
V
21 °C 10 km+ - 070°   070° 8 kt METAR EDLP 201150Z 07008KT 9999 FEW020 SCT024 21/16 Q1017
13:20
V
21 °C 10 km+ - 050°   050° 8 kt METAR EDLP 201120Z 05008KT 020V090 9999 FEW019 21/16 Q1018
12:50
V
20 °C 10 km+ - 110°   110° 6 kt METAR EDLP 201050Z 11006KT 080V150 9999 SCT017 20/16 Q1018
12:20
V
20 °C 10 km+ - 070°   070° 5 kt METAR EDLP 201020Z 07005KT 030V110 9999 SCT017 20/15 Q1019
11:50
V
19 °C 8 km - 110°   110° 7 kt METAR EDLP 200950Z 11007KT 050V160 8000 FEW014 19/15 Q1019
11:20
M
18 °C 10 km+ 1.700 ft 090°   090° 7 kt METAR EDLP 200920Z 09007KT 060V130 9999 SCT014 BKN017 18/14 Q1020
10:50
M
17 °C 10 km+ 1.600 ft 100°   100° 4 kt METAR EDLP 200850Z 10004KT 050V150 9999 SCT014 BKN016 17/13 Q1020
10:20
V
16 °C 8 km - 050°   050° 4 kt METAR EDLP 200820Z 05004KT 010V120 8000 SCT011 16/13 Q1021
09:50
M
15 °C 10 km+ 1.100 ft 050°   050° 3 kt METAR EDLP 200750Z 05003KT 330V120 9999 BKN011 15/12 Q1021
09:20
M
14 °C 8 km 1.100 ft 030°   030° 3 kt METAR EDLP 200720Z 03003KT 330V080 8000 FEW008 OVC011 14/12 Q1021
08:50
M
14 °C 6 km 1.600 ft 040°   040° 3 kt METAR EDLP 200650Z 04003KT 350V080 6000 SCT006 BKN016 14/12 Q1021
08:20
I
13 °C 4,5 km 1.400 ft 360°   360° 3 kt METAR EDLP 200620Z 36003KT 310V070 4500 BR SCT008 BKN014 13/12 Q1022
07:50
M
14 °C 7 km 1.700 ft 350°   350° 3 kt METAR EDLP 200550Z 35003KT 290V060 7000 FEW007 OVC017 14/12 Q1022
07:20
M
13 °C 7 km 1.800 ft Var   Var 2 kt METAR EDLP 200520Z VRB02KT 7000 FEW008 BKN018 OVC028 13/12 Q1022
06:50
M
13 °C 8 km 1.800 ft Var   Var 2 kt METAR EDLP 200450Z VRB02KT 8000 OVC018 13/12 Q1022
Dados mais antigos

Baixe nosso aplicativo

Fácil acesso a todas as condições meteorológicas da aviação no seu celular e no seu tablet.
Com muitos recursos não disponíveis no site, como suporte offline e uma lista pessoal de aeroportos.

Nós e terceiros acompanhamos seu comportamento na internet em nosso site com cookies. Se você continuar, nós assumimos que você concorda com nossa política de cookies. Saiba mais